createdAt,value
2023-04-22T00:02:24.466Z,11.09
2023-04-22T00:04:51.526Z,11.12
2023-04-22T00:07:18.485Z,11.21
2023-04-22T00:09:45.964Z,11.28
2023-04-22T00:12:12.692Z,11.32
2023-04-22T00:14:39.452Z,11.33
2023-04-22T00:17:07.157Z,11.47
2023-04-22T00:19:35.404Z,11.55
2023-04-22T00:22:02.234Z,11.50
2023-04-22T00:24:28.870Z,11.09
2023-04-22T00:26:55.585Z,11.05
2023-04-22T00:29:22.447Z,11.06
2023-04-22T00:31:49.446Z,10.93
2023-04-22T00:34:17.991Z,10.83
2023-04-22T00:36:46.290Z,10.80
2023-04-22T00:39:13.042Z,10.90
2023-04-22T00:41:39.789Z,10.99
2023-04-22T00:44:08.867Z,10.80
2023-04-22T00:46:36.989Z,10.79
2023-04-22T00:49:04.806Z,10.88
2023-04-22T00:51:31.981Z,10.64
2023-04-22T00:54:02.117Z,10.53
2023-04-22T00:56:29.953Z,10.50
2023-04-22T00:58:56.870Z,10.57
2023-04-22T01:01:23.581Z,10.46
2023-04-22T01:03:50.880Z,10.30
2023-04-22T01:06:18.689Z,10.32
2023-04-22T01:08:46.108Z,10.25
2023-04-22T01:11:15.582Z,10.32
2023-04-22T01:13:42.489Z,10.38
2023-04-22T01:16:10.078Z,10.57
2023-04-22T01:18:37.076Z,10.65
2023-04-22T01:21:03.794Z,10.72
2023-04-22T01:23:31.911Z,10.74
2023-04-22T01:25:58.788Z,10.69
2023-04-22T01:28:26.115Z,10.66
2023-04-22T01:30:54.204Z,10.68
2023-04-22T01:33:20.973Z,10.47
2023-04-22T01:35:47.656Z,10.52
2023-04-22T01:38:14.371Z,10.55
2023-04-22T01:40:42.411Z,10.49
2023-04-22T01:43:09.164Z,10.45
2023-04-22T01:45:35.867Z,10.46
2023-04-22T01:48:02.537Z,10.40
2023-04-22T01:50:29.249Z,10.43
2023-04-22T01:52:55.942Z,10.39
2023-04-22T01:55:22.614Z,10.45
2023-04-22T01:57:50.664Z,10.48
2023-04-22T02:00:17.882Z,10.43
2023-04-22T02:02:47.395Z,10.34
2023-04-22T02:05:14.282Z,10.22
2023-04-22T02:07:41.121Z,10.09
2023-04-22T02:10:09.420Z,9.97
2023-04-22T02:12:36.261Z,9.86
2023-04-22T02:15:04.730Z,9.89
2023-04-22T02:17:31.419Z,9.95
2023-04-22T02:19:58.213Z,9.97
2023-04-22T02:22:24.985Z,10.06
2023-04-22T02:24:51.564Z,10.24
2023-04-22T02:27:18.305Z,10.34
2023-04-22T02:29:47.517Z,10.22
2023-04-22T02:32:17.924Z,10.08
2023-04-22T02:34:44.566Z,10.10
2023-04-22T02:37:11.201Z,10.16
2023-04-22T02:39:38.253Z,10.09
2023-04-22T02:42:06.226Z,10.17
2023-04-22T02:44:33.138Z,10.26
2023-04-22T02:46:59.805Z,10.33
2023-04-22T02:49:28.018Z,10.40
2023-04-22T02:51:54.704Z,10.46
2023-04-22T02:54:21.293Z,10.45
2023-04-22T02:56:47.874Z,10.29
2023-04-22T02:59:14.602Z,10.36
2023-04-22T03:01:41.374Z,10.52
2023-04-22T03:04:12.433Z,10.57
2023-04-22T03:06:40.560Z,10.61
2023-04-22T03:09:07.512Z,10.75
2023-04-22T03:11:34.122Z,10.80
2023-04-22T03:14:00.718Z,10.97
2023-04-22T03:16:27.553Z,11.07
2023-04-22T03:18:56.876Z,11.10
2023-04-22T03:21:23.561Z,11.13
2023-04-22T03:23:51.969Z,11.25
2023-04-22T03:26:18.704Z,11.30
2023-04-22T03:28:45.735Z,11.27
2023-04-22T03:31:12.385Z,11.23
2023-04-22T03:33:39.254Z,11.30
2023-04-22T03:36:13.708Z,11.37
2023-04-22T03:38:40.606Z,11.24
2023-04-22T03:41:09.350Z,11.26
2023-04-22T03:43:40.000Z,11.38
2023-04-22T03:46:09.038Z,11.47
2023-04-22T03:48:39.865Z,11.39
2023-04-22T03:51:12.043Z,11.49
2023-04-22T03:53:40.539Z,11.48
2023-04-22T03:56:09.955Z,11.40
2023-04-22T03:58:40.565Z,11.49
2023-04-22T04:01:08.406Z,11.55
2023-04-22T04:03:36.217Z,11.42
2023-04-22T04:06:03.876Z,11.47
2023-04-22T04:08:30.732Z,11.44
2023-04-22T04:10:58.812Z,11.49
2023-04-22T04:13:32.152Z,11.61
2023-04-22T04:16:21.054Z,11.75
2023-04-22T04:18:53.705Z,11.68
2023-04-22T04:21:22.257Z,11.83
2023-04-22T04:23:51.569Z,11.81
2023-04-22T04:26:24.002Z,11.87
2023-04-22T04:28:57.568Z,11.88
2023-04-22T04:31:24.816Z,11.91
2023-04-22T04:33:53.099Z,11.91
2023-04-22T04:36:20.088Z,11.86
2023-04-22T04:38:47.795Z,11.75
2023-04-22T04:41:14.542Z,11.60
2023-04-22T04:43:41.354Z,11.70
2023-04-22T04:46:24.378Z,11.72
2023-04-22T04:48:54.046Z,12.01
2023-04-22T04:51:21.294Z,12.33
2023-04-22T04:53:52.372Z,12.65
2023-04-22T04:56:19.360Z,12.95
2023-04-22T04:58:46.907Z,13.09
2023-04-22T05:01:18.315Z,13.13
2023-04-22T05:03:47.871Z,13.13
2023-04-22T05:06:17.133Z,13.44
2023-04-22T05:08:48.616Z,13.88
2023-04-22T05:11:15.369Z,14.43
2023-04-22T05:13:44.874Z,14.56
2023-04-22T05:16:18.144Z,14.90
2023-04-22T05:18:44.882Z,15.76
2023-04-22T05:21:14.386Z,16.66
2023-04-22T05:23:41.202Z,17.12
2023-04-22T05:26:07.842Z,17.26
2023-04-22T05:28:39.069Z,16.65
2023-04-22T05:31:06.851Z,15.53
2023-04-22T05:33:33.750Z,15.63
2023-04-22T05:36:00.534Z,15.92
2023-04-22T05:38:28.515Z,15.97
2023-04-22T05:40:56.332Z,17.20
2023-04-22T05:43:24.051Z,18.80
2023-04-22T05:46:00.317Z,20.12
2023-04-22T05:48:27.042Z,20.50
2023-04-22T05:50:58.316Z,21.00
2023-04-22T05:53:29.080Z,19.38
2023-04-22T05:55:56.636Z,20.58
2023-04-22T05:58:24.101Z,20.67
2023-04-22T06:00:53.999Z,20.87
2023-04-22T06:03:45.556Z,22.09
2023-04-22T06:06:12.897Z,20.74
2023-04-22T06:08:40.936Z,19.59
2023-04-22T06:11:07.637Z,19.43
2023-04-22T06:13:36.042Z,20.81
2023-04-22T06:16:05.104Z,20.67
2023-04-22T06:18:38.037Z,21.00
2023-04-22T06:21:07.589Z,22.09
2023-04-22T06:23:36.073Z,21.94
2023-04-22T06:26:04.515Z,21.80
2023-04-22T06:28:31.330Z,19.31
2023-04-22T06:31:01.989Z,18.25
2023-04-22T06:33:29.502Z,17.50
2023-04-22T06:35:56.131Z,18.63
2023-04-22T06:38:22.991Z,18.10
2023-04-22T06:41:13.757Z,18.97
2023-04-22T06:43:43.355Z,19.09
2023-04-22T06:46:42.180Z,19.73
2023-04-22T06:49:47.284Z,19.28
2023-04-22T06:52:43.059Z,19.99
2023-04-22T06:55:10.360Z,20.16
2023-04-22T06:57:39.307Z,19.75
2023-04-22T07:00:08.542Z,19.71
2023-04-22T07:02:37.706Z,18.21
2023-04-22T07:05:04.904Z,17.55
2023-04-22T07:07:31.587Z,17.68
2023-04-22T07:09:58.260Z,17.35
2023-04-22T07:12:29.506Z,17.47
2023-04-22T07:14:57.542Z,18.60
2023-04-22T07:17:24.207Z,19.00
2023-04-22T07:19:50.887Z,18.44
2023-04-22T07:22:17.492Z,18.55
2023-04-22T07:24:44.173Z,18.52
2023-04-22T07:27:11.023Z,19.01
2023-04-22T07:29:38.191Z,18.79
2023-04-22T07:32:06.723Z,18.55
2023-04-22T07:34:33.526Z,19.09
2023-04-22T07:37:00.267Z,18.88
2023-04-22T07:39:27.317Z,18.98
2023-04-22T07:41:53.965Z,19.22
2023-04-22T07:44:21.738Z,19.36
2023-04-22T07:46:48.671Z,18.78
2023-04-22T07:49:20.092Z,18.97
2023-04-22T07:51:46.768Z,19.12
2023-04-22T07:54:13.472Z,19.56
2023-04-22T07:56:40.124Z,20.09
2023-04-22T07:59:06.812Z,20.09
2023-04-22T08:01:33.538Z,19.66
2023-04-22T08:04:00.480Z,19.28
2023-04-22T08:06:28.809Z,18.62
2023-04-22T08:08:55.565Z,18.70
2023-04-22T08:11:22.184Z,18.27
2023-04-22T08:13:48.855Z,17.90
2023-04-22T08:16:15.772Z,17.55
2023-04-22T08:18:42.421Z,17.61
2023-04-22T08:21:09.103Z,17.76
2023-04-22T08:23:37.064Z,17.23
2023-04-22T08:26:03.948Z,17.34
2023-04-22T08:28:30.619Z,17.24
2023-04-22T08:30:57.269Z,17.12
2023-04-22T08:33:26.571Z,16.98
2023-04-22T08:35:53.859Z,16.90
2023-04-22T08:38:20.469Z,17.16
2023-04-22T08:40:48.910Z,16.96
2023-04-22T08:43:15.909Z,17.23
2023-04-22T08:45:42.873Z,16.96
2023-04-22T08:48:09.922Z,16.80
2023-04-22T08:50:37.428Z,16.75
2023-04-22T08:53:04.116Z,16.67
2023-04-22T08:55:31.085Z,16.32
2023-04-22T08:57:59.189Z,16.17
2023-04-22T09:00:25.971Z,16.22
2023-04-22T09:02:53.648Z,16.02
2023-04-22T09:05:22.356Z,15.95
2023-04-22T09:07:48.999Z,15.92
2023-04-22T09:10:15.729Z,15.97
2023-04-22T09:12:42.718Z,15.95
2023-04-22T09:15:11.826Z,16.09
2023-04-22T09:17:39.196Z,15.74
2023-04-22T09:20:07.213Z,16.04
2023-04-22T09:22:38.324Z,15.74
2023-04-22T09:25:05.376Z,15.54
2023-04-22T09:27:34.042Z,15.55
2023-04-22T09:30:00.697Z,15.39
2023-04-22T09:32:28.739Z,15.33
2023-04-22T09:34:55.502Z,15.05
2023-04-22T09:37:26.063Z,14.76
2023-04-22T09:39:55.613Z,14.77
2023-04-22T09:42:22.301Z,14.89
2023-04-22T09:44:52.636Z,14.86
2023-04-22T09:47:23.796Z,14.86
2023-04-22T09:49:51.910Z,14.90
2023-04-22T09:52:24.308Z,14.82
2023-04-22T09:54:51.906Z,14.94
2023-04-22T09:57:18.782Z,14.86
2023-04-22T09:59:45.490Z,15.06
2023-04-22T10:02:12.185Z,14.91
2023-04-22T10:04:38.857Z,14.82
2023-04-22T10:07:07.061Z,14.60
2023-04-22T10:09:34.630Z,14.75
2023-04-22T10:12:01.991Z,14.65
2023-04-22T10:14:28.569Z,14.89
2023-04-22T10:16:57.766Z,15.43
2023-04-22T10:19:25.632Z,15.17
2023-04-22T10:21:53.617Z,15.07
2023-04-22T10:24:21.886Z,15.58
2023-04-22T10:26:50.008Z,16.14
2023-04-22T10:29:17.893Z,15.60
2023-04-22T10:31:45.442Z,15.70
2023-04-22T10:34:13.205Z,15.74
2023-04-22T10:36:56.137Z,16.28
2023-04-22T10:39:24.555Z,16.50
2023-04-22T10:41:52.326Z,16.87
2023-04-22T10:44:20.665Z,16.80
2023-04-22T10:46:57.506Z,16.77
2023-04-22T10:49:25.218Z,16.53
2023-04-22T10:51:52.522Z,16.62
2023-04-22T10:54:37.839Z,15.92
2023-04-22T10:57:07.079Z,16.02
2023-04-22T10:59:34.333Z,16.48
2023-04-22T11:02:01.209Z,16.25
2023-04-22T11:04:28.061Z,16.50
2023-04-22T11:07:09.738Z,16.43
2023-04-22T11:09:39.685Z,16.91
2023-04-22T11:12:25.131Z,16.98
2023-04-22T11:14:53.206Z,17.53
2023-04-22T11:17:21.040Z,18.11
2023-04-22T11:19:47.680Z,18.14
2023-04-22T11:22:14.423Z,18.17
2023-04-22T11:24:53.039Z,18.50
2023-04-22T11:27:26.110Z,18.30
2023-04-22T11:30:03.068Z,18.89
2023-04-22T11:32:30.035Z,19.33
2023-04-22T11:34:57.466Z,18.88
2023-04-22T11:37:24.788Z,19.51
2023-04-22T11:42:22.953Z,20.31
2023-04-22T11:44:50.699Z,20.55
2023-04-22T11:47:19.479Z,19.62
2023-04-22T11:49:54.654Z,19.38
2023-04-22T11:52:21.355Z,19.40
2023-04-22T11:54:47.951Z,19.04
2023-04-22T11:57:16.681Z,18.80
2023-04-22T11:59:43.381Z,18.71
2023-04-22T12:02:10.321Z,19.00
2023-04-22T12:04:39.978Z,19.17
2023-04-22T12:07:06.912Z,19.34
2023-04-22T12:09:33.544Z,19.71
2023-04-22T12:12:02.142Z,20.25
2023-04-22T12:14:31.789Z,20.66
2023-04-22T12:16:58.446Z,20.74
2023-04-22T12:19:25.892Z,20.05
2023-04-22T12:21:56.994Z,19.57
2023-04-22T12:24:27.442Z,19.42
2023-04-22T12:26:54.213Z,19.10
2023-04-22T12:29:26.956Z,19.03
2023-04-22T12:31:53.621Z,19.15
2023-04-22T12:34:20.277Z,19.22
2023-04-22T12:36:47.412Z,19.20
2023-04-22T12:39:15.459Z,19.60
2023-04-22T12:41:42.122Z,19.58
2023-04-22T12:44:08.856Z,19.28
2023-04-22T12:46:36.184Z,19.00
2023-04-22T12:49:02.812Z,18.99
2023-04-22T12:51:29.444Z,18.38
2023-04-22T12:53:56.079Z,18.21
2023-04-22T12:56:24.041Z,18.12
2023-04-22T12:58:51.021Z,17.90
2023-04-22T13:01:17.673Z,17.78
2023-04-22T13:03:44.449Z,17.95
2023-04-22T13:06:11.323Z,17.78
2023-04-22T13:08:37.971Z,18.01
2023-04-22T13:11:04.700Z,17.87
2023-04-22T13:13:32.665Z,17.94
2023-04-22T13:15:59.282Z,18.11
2023-04-22T13:18:25.998Z,18.11
2023-04-22T13:20:52.967Z,18.39
2023-04-22T13:23:21.736Z,18.10
2023-04-22T13:25:48.756Z,18.02
2023-04-22T13:28:15.452Z,18.07
2023-04-22T13:30:43.492Z,18.45
2023-04-22T13:33:10.249Z,18.22
2023-04-22T13:35:37.224Z,17.99
2023-04-22T13:38:03.909Z,17.97
2023-04-22T13:40:30.687Z,17.84
2023-04-22T13:42:57.316Z,17.96
2023-04-22T13:45:24.983Z,17.85
2023-04-22T13:47:53.343Z,17.79
2023-04-22T13:50:20.101Z,17.94
2023-04-22T13:52:46.744Z,18.22
2023-04-22T13:55:13.414Z,18.00
2023-04-22T13:57:40.024Z,18.01
2023-04-22T14:00:07.348Z,17.73
2023-04-22T14:02:38.519Z,18.00
2023-04-22T14:05:07.580Z,17.98
2023-04-22T14:07:34.211Z,18.02
2023-04-22T14:10:01.155Z,17.81
2023-04-22T14:12:27.781Z,17.77
2023-04-22T14:14:54.429Z,17.80
2023-04-22T14:17:22.594Z,17.74
2023-04-22T14:19:49.514Z,17.82
2023-04-22T14:22:17.492Z,17.78
2023-04-22T14:24:44.163Z,17.63
2023-04-22T14:27:12.419Z,17.51
2023-04-22T14:29:39.564Z,17.33
2023-04-22T14:32:06.455Z,17.22
2023-04-22T14:34:33.156Z,17.21
2023-04-22T14:36:59.812Z,17.39
2023-04-22T14:39:27.742Z,17.08
2023-04-22T14:41:54.496Z,16.96
2023-04-22T14:44:21.138Z,16.95
2023-04-22T14:46:47.863Z,16.82
2023-04-22T14:49:14.521Z,16.86
2023-04-22T14:51:41.234Z,17.05
2023-04-22T14:54:07.819Z,17.15
2023-04-22T14:56:36.499Z,17.08
2023-04-22T14:59:03.107Z,17.22
2023-04-22T15:01:29.865Z,16.86
2023-04-22T15:03:56.659Z,16.68
2023-04-22T15:06:23.391Z,16.58
2023-04-22T15:08:51.755Z,16.70
2023-04-22T15:11:18.472Z,16.60
2023-04-22T15:13:46.572Z,16.54
2023-04-22T15:16:13.524Z,16.27
2023-04-22T15:18:40.260Z,16.24
2023-04-22T15:21:10.220Z,15.87
2023-04-22T15:23:36.998Z,15.81
2023-04-22T15:26:06.938Z,15.50
2023-04-22T15:28:35.020Z,15.34
2023-04-22T15:31:03.437Z,15.16
2023-04-22T15:33:30.265Z,15.09
2023-04-22T15:35:57.062Z,15.06
2023-04-22T15:38:27.732Z,14.76
2023-04-22T15:40:54.486Z,14.84
2023-04-22T15:43:21.340Z,14.82
2023-04-22T15:45:48.211Z,14.90
2023-04-22T15:48:16.326Z,14.72
2023-04-22T15:50:43.449Z,14.85
2023-04-22T15:53:10.395Z,14.59
2023-04-22T15:55:37.216Z,14.67
2023-04-22T15:58:04.110Z,14.37
2023-04-22T16:00:30.778Z,14.47
2023-04-22T16:02:57.593Z,14.41
2023-04-22T16:05:26.034Z,14.05
2023-04-22T16:07:53.044Z,14.09
2023-04-22T16:10:19.864Z,14.01
2023-04-22T16:12:46.485Z,13.91
2023-04-22T16:15:13.381Z,13.92
2023-04-22T16:17:40.586Z,14.00
2023-04-22T16:20:08.535Z,13.83
2023-04-22T16:22:37.234Z,13.72
2023-04-22T16:25:04.338Z,13.62
2023-04-22T16:27:30.951Z,13.42
2023-04-22T16:29:57.645Z,13.67
2023-04-22T16:32:24.705Z,13.50
2023-04-22T16:34:51.327Z,13.37
2023-04-22T16:37:17.975Z,13.16
2023-04-22T16:39:46.266Z,13.38
2023-04-22T16:42:12.920Z,13.24
2023-04-22T16:44:39.626Z,13.11
2023-04-22T16:47:06.230Z,13.22
2023-04-22T16:49:32.887Z,13.14
2023-04-22T16:51:59.507Z,13.21
2023-04-22T16:54:26.195Z,13.41
2023-04-22T16:56:54.265Z,13.15
2023-04-22T16:59:20.972Z,13.15
2023-04-22T17:01:47.593Z,13.39
2023-04-22T17:04:14.347Z,13.23
2023-04-22T17:06:41.156Z,13.04
2023-04-22T17:09:09.130Z,13.04
2023-04-22T17:11:35.802Z,13.12
2023-04-22T17:14:03.877Z,13.17
2023-04-22T17:16:30.594Z,13.20
2023-04-22T17:18:57.249Z,12.94
2023-04-22T17:21:23.818Z,12.91
2023-04-22T17:23:50.642Z,13.01
2023-04-22T17:26:17.302Z,12.91
2023-04-22T17:28:44.003Z,12.89
2023-04-22T17:31:12.176Z,12.83
2023-04-22T17:33:40.924Z,12.89
2023-04-22T17:36:07.728Z,12.98
2023-04-22T17:38:34.489Z,12.84
2023-04-22T17:41:01.189Z,12.82
2023-04-22T17:43:27.877Z,12.81
2023-04-22T17:45:54.489Z,12.92
2023-04-22T17:48:22.684Z,13.02
2023-04-22T17:50:49.306Z,13.07
2023-04-22T17:53:16.249Z,12.76
2023-04-22T17:55:42.993Z,12.67
2023-04-22T17:58:09.918Z,12.51
2023-04-22T18:00:36.940Z,12.88
2023-04-22T18:03:04.605Z,12.81
2023-04-22T18:05:32.807Z,12.49
2023-04-22T18:08:02.963Z,12.54
2023-04-22T18:10:30.159Z,12.46
2023-04-22T18:12:56.929Z,12.69
2023-04-22T18:15:23.869Z,12.68
2023-04-22T18:17:50.618Z,12.67
2023-04-22T18:20:19.433Z,12.50
2023-04-22T18:22:48.285Z,12.30
2023-04-22T18:25:15.394Z,12.29
2023-04-22T18:27:42.146Z,12.17
2023-04-22T18:30:09.633Z,12.18
2023-04-22T18:32:45.583Z,12.34
2023-04-22T18:35:23.107Z,12.29
2023-04-22T18:37:55.945Z,12.23
2023-04-22T18:44:17.218Z,12.36
2023-04-22T18:47:24.703Z,12.39
2023-04-22T18:49:54.498Z,12.35
2023-04-22T18:52:23.336Z,12.29
2023-04-22T18:54:51.615Z,12.18
2023-04-22T18:57:18.393Z,12.09
2023-04-22T18:59:45.105Z,12.33
2023-04-22T19:02:13.367Z,12.27
2023-04-22T19:04:42.875Z,12.15
2023-04-22T19:07:10.226Z,12.13
2023-04-22T19:09:37.311Z,12.10
2023-04-22T19:12:13.691Z,12.24
2023-04-22T19:14:43.722Z,12.51
2023-04-22T19:17:16.107Z,12.55
2023-04-22T19:19:45.326Z,12.14
2023-04-22T19:22:12.635Z,12.30
2023-04-22T19:24:40.198Z,12.44
2023-04-22T19:27:15.146Z,12.41
2023-04-22T19:29:42.860Z,12.59
2023-04-22T19:32:11.054Z,12.48
2023-04-22T19:34:38.388Z,12.25
2023-04-22T19:37:05.314Z,12.25
2023-04-22T19:39:34.342Z,12.16
2023-04-22T19:42:02.897Z,12.53
2023-04-22T19:44:31.243Z,12.53
2023-04-22T19:46:58.118Z,12.48
2023-04-22T19:49:25.822Z,12.59
2023-04-22T19:51:53.256Z,12.63
2023-04-22T19:54:28.319Z,12.60
2023-04-22T19:57:07.559Z,12.35
2023-04-22T19:59:49.784Z,12.14
2023-04-22T20:02:17.237Z,12.38
2023-04-22T20:04:44.294Z,12.29
2023-04-22T20:07:12.291Z,12.42
2023-04-22T20:09:42.530Z,12.44
2023-04-22T20:12:09.890Z,12.54
2023-04-22T20:14:45.205Z,12.51
2023-04-22T20:17:22.851Z,12.39
2023-04-22T20:19:52.892Z,12.32
2023-04-22T20:22:22.371Z,12.17
2023-04-22T20:31:27.712Z,12.71
2023-04-22T20:40:44.086Z,12.59
2023-04-22T20:43:13.203Z,12.58
2023-04-22T20:48:47.816Z,12.83
2023-04-22T20:51:14.658Z,12.80
2023-04-22T20:53:41.327Z,12.55
2023-04-22T20:56:08.225Z,12.43
2023-04-22T20:58:34.870Z,12.39
2023-04-22T21:01:01.632Z,12.46
2023-04-22T21:03:29.311Z,12.40
2023-04-22T21:05:58.441Z,12.37
2023-04-22T21:08:26.000Z,12.34
2023-04-22T21:10:53.397Z,12.24
2023-04-22T21:13:20.802Z,12.30
2023-04-22T21:15:54.373Z,12.34
2023-04-22T21:18:23.838Z,12.30
2023-04-22T21:20:50.938Z,12.46
2023-04-22T21:23:20.387Z,12.37
2023-04-22T21:25:48.625Z,12.55
2023-04-22T21:28:16.178Z,12.39
2023-04-22T21:30:43.485Z,12.36
2023-04-22T21:33:10.672Z,12.49
2023-04-22T21:35:39.268Z,12.68
2023-04-22T21:38:06.298Z,12.48
2023-04-22T21:40:34.371Z,12.41
2023-04-22T21:43:01.071Z,12.46
2023-04-22T21:45:27.708Z,12.50
2023-04-22T21:47:54.684Z,12.62
2023-04-22T21:50:21.485Z,12.51
2023-04-22T21:52:48.571Z,12.39
2023-04-22T21:55:15.227Z,12.34
2023-04-22T21:57:43.309Z,12.31
2023-04-22T22:00:18.500Z,12.39
2023-04-22T22:02:45.676Z,12.21
2023-04-22T22:05:13.169Z,12.19
2023-04-22T22:07:41.402Z,12.20
2023-04-22T22:10:09.014Z,12.18
2023-04-22T22:12:35.958Z,12.18
2023-04-22T22:15:04.845Z,12.15
2023-04-22T22:17:32.082Z,12.05
2023-04-22T22:19:58.823Z,12.11
2023-04-22T22:22:26.266Z,12.15
2023-04-22T22:24:52.843Z,12.08
2023-04-22T22:27:19.511Z,12.10
2023-04-22T22:29:46.582Z,12.28
2023-04-22T22:32:14.672Z,12.20
2023-04-22T22:34:41.849Z,12.26
2023-04-22T22:37:09.189Z,12.19
2023-04-22T22:39:36.226Z,12.28
2023-04-22T22:42:02.842Z,12.44
2023-04-22T22:44:29.499Z,12.19
2023-04-22T22:46:56.623Z,12.25
2023-04-22T22:49:24.800Z,12.39
2023-04-22T22:51:51.464Z,12.43
2023-04-22T22:54:18.102Z,12.30
2023-04-22T22:56:44.710Z,12.40
2023-04-22T22:59:11.396Z,12.13
2023-04-22T23:01:38.264Z,12.11
2023-04-22T23:04:05.861Z,12.02
2023-04-22T23:06:34.013Z,11.98
2023-04-22T23:09:00.738Z,11.96
2023-04-22T23:11:27.446Z,12.02
2023-04-22T23:13:54.135Z,12.08
2023-04-22T23:16:21.008Z,12.00
2023-04-22T23:18:48.017Z,12.01
2023-04-22T23:21:14.965Z,12.00
2023-04-22T23:23:43.609Z,12.07
2023-04-22T23:26:10.807Z,12.10
2023-04-22T23:28:37.742Z,12.17
2023-04-22T23:31:06.650Z,12.31
2023-04-22T23:33:34.770Z,12.36
2023-04-22T23:36:04.368Z,12.12
2023-04-22T23:38:31.016Z,12.25
2023-04-22T23:40:58.989Z,12.28
2023-04-22T23:43:25.776Z,12.26
2023-04-22T23:45:52.382Z,12.30
2023-04-22T23:48:19.025Z,12.19
2023-04-22T23:50:45.875Z,12.06
2023-04-22T23:53:12.577Z,12.09
2023-04-22T23:55:39.735Z,12.01
2023-04-22T23:58:08.008Z,12.16
